sensor_id;sensor_type;location;lat;lon;timestamp;pressure;altitude;pressure_sealevel;temperature;humidity
51452;BME280;37521;52.020;-1.740;2023-02-01T00:01:21;100687.19;;;3.21;100.00
51452;BME280;37521;52.020;-1.740;2023-02-01T00:03:50;100689.81;;;3.22;100.00
51452;BME280;37521;52.020;-1.740;2023-02-01T00:06:19;100684.59;;;3.19;100.00
51452;BME280;37521;52.020;-1.740;2023-02-01T00:08:47;100682.00;;;3.13;100.00
51452;BME280;37521;52.020;-1.740;2023-02-01T00:11:15;100662.91;;;3.11;100.00
51452;BME280;37521;52.020;-1.740;2023-02-01T00:13:44;100674.19;;;3.16;100.00
51452;BME280;37521;52.020;-1.740;2023-02-01T00:16:13;100667.22;;;3.17;100.00
51452;BME280;37521;52.020;-1.740;2023-02-01T00:18:43;100676.78;;;3.18;100.00
51452;BME280;37521;52.020;-1.740;2023-02-01T00:21:12;100681.09;;;3.20;100.00
51452;BME280;37521;52.020;-1.740;2023-02-01T00:23:42;100671.56;;;3.18;100.00
51452;BME280;37521;52.020;-1.740;2023-02-01T00:26:14;100661.13;;;3.13;100.00
51452;BME280;37521;52.020;-1.740;2023-02-01T00:28:43;100668.97;;;3.13;100.00
51452;BME280;37521;52.020;-1.740;2023-02-01T00:31:11;100676.78;;;3.16;100.00
51452;BME280;37521;52.020;-1.740;2023-02-01T00:33:40;100675.88;;;3.20;100.00
51452;BME280;37521;52.020;-1.740;2023-02-01T00:36:09;100668.91;;;3.25;100.00
51452;BME280;37521;52.020;-1.740;2023-02-01T00:38:38;100679.38;;;3.22;100.00
51452;BME280;37521;52.020;-1.740;2023-02-01T00:41:11;100666.31;;;3.22;100.00
51452;BME280;37521;52.020;-1.740;2023-02-01T00:43:40;100665.44;;;3.23;100.00
51452;BME280;37521;52.020;-1.740;2023-02-01T00:46:09;100672.34;;;3.27;100.00
51452;BME280;37521;52.020;-1.740;2023-02-01T00:48:37;100663.66;;;3.32;100.00
51452;BME280;37521;52.020;-1.740;2023-02-01T00:51:07;100661.03;;;3.33;100.00
51452;BME280;37521;52.020;-1.740;2023-02-01T00:53:36;100666.25;;;3.35;100.00
51452;BME280;37521;52.020;-1.740;2023-02-01T00:56:05;100654.06;;;3.37;100.00
51452;BME280;37521;52.020;-1.740;2023-02-01T00:58:35;100665.38;;;3.36;100.00
51452;BME280;37521;52.020;-1.740;2023-02-01T01:01:05;100663.59;;;3.38;100.00
51452;BME280;37521;52.020;-1.740;2023-02-01T01:03:35;100654.91;;;3.39;100.00
51452;BME280;37521;52.020;-1.740;2023-02-01T01:06:06;100661.84;;;3.40;100.00
51452;BME280;37521;52.020;-1.740;2023-02-01T01:08:34;100650.53;;;3.42;100.00
51452;BME280;37521;52.020;-1.740;2023-02-01T01:11:05;100662.69;;;3.48;100.00
51452;BME280;37521;52.020;-1.740;2023-02-01T01:13:35;100658.31;;;3.50;100.00
51452;BME280;37521;52.020;-1.740;2023-02-01T01:16:05;100646.13;;;3.50;100.00
51452;BME280;37521;52.020;-1.740;2023-02-01T01:18:34;100641.78;;;3.49;100.00
51452;BME280;37521;52.020;-1.740;2023-02-01T01:21:04;100641.78;;;3.46;100.00
51452;BME280;37521;52.020;-1.740;2023-02-01T01:23:33;100635.75;;;3.43;100.00
51452;BME280;37521;52.020;-1.740;2023-02-01T01:26:05;100646.16;;;3.46;100.00
51452;BME280;37521;52.020;-1.740;2023-02-01T01:28:35;100638.28;;;3.47;100.00
51452;BME280;37521;52.020;-1.740;2023-02-01T01:31:04;100642.56;;;3.59;100.00
51452;BME280;37521;52.020;-1.740;2023-02-01T01:33:35;100646.03;;;3.63;100.00
51452;BME280;37521;52.020;-1.740;2023-02-01T01:36:04;100651.19;;;3.67;100.00
51452;BME280;37521;52.020;-1.740;2023-02-01T01:38:34;100656.38;;;3.76;100.00
51452;BME280;37521;52.020;-1.740;2023-02-01T01:41:03;100641.50;;;3.83;100.00
51452;BME280;37521;52.020;-1.740;2023-02-01T01:43:49;100638.88;;;3.85;100.00
51452;BME280;37521;52.020;-1.740;2023-02-01T01:46:20;100644.09;;;3.85;100.00
51452;BME280;37521;52.020;-1.740;2023-02-01T01:48:51;100649.31;;;3.85;100.00
51452;BME280;37521;52.020;-1.740;2023-02-01T01:51:23;100645.81;;;3.87;100.00
51452;BME280;37521;52.020;-1.740;2023-02-01T01:53:59;100650.16;;;3.90;100.00
51452;BME280;37521;52.020;-1.740;2023-02-01T01:56:30;100647.50;;;3.93;100.00
51452;BME280;37521;52.020;-1.740;2023-02-01T01:59:03;100649.22;;;3.94;100.00
51452;BME280;37521;52.020;-1.740;2023-02-01T02:01:32;100651.03;;;3.89;100.00
51452;BME280;37521;52.020;-1.740;2023-02-01T02:04:01;100645.84;;;3.86;100.00
51452;BME280;37521;52.020;-1.740;2023-02-01T02:06:37;100656.31;;;3.82;100.00
51452;BME280;37521;52.020;-1.740;2023-02-01T02:09:06;100644.16;;;3.78;100.00
51452;BME280;37521;52.020;-1.740;2023-02-01T02:11:35;100635.47;;;3.73;100.00
51452;BME280;37521;52.020;-1.740;2023-02-01T02:14:07;100632.06;;;3.68;100.00
51452;BME280;37521;52.020;-1.740;2023-02-01T02:16:49;100625.09;;;3.67;100.00
51452;BME280;37521;52.020;-1.740;2023-02-01T02:22:39;100630.31;;;3.67;100.00
51452;BME280;37521;52.020;-1.740;2023-02-01T02:25:23;100639.00;;;3.68;100.00
51452;BME280;37521;52.020;-1.740;2023-02-01T02:27:59;100633.84;;;3.63;100.00
51452;BME280;37521;52.020;-1.740;2023-02-01T02:30:54;100632.97;;;3.64;100.00
51452;BME280;37521;52.020;-1.740;2023-02-01T02:33:48;100624.25;;;3.65;100.00
51452;BME280;37521;52.020;-1.740;2023-02-01T02:36:26;100624.16;;;3.73;100.00
51452;BME280;37521;52.020;-1.740;2023-02-01T02:39:06;100615.41;;;3.81;100.00
51452;BME280;37521;52.020;-1.740;2023-02-01T02:41:46;100608.41;;;3.83;100.00
51452;BME280;37521;52.020;-1.740;2023-02-01T02:44:45;100607.59;;;3.78;100.00
51452;BME280;37521;52.020;-1.740;2023-02-01T02:47:36;100605.81;;;3.80;100.00
51452;BME280;37521;52.020;-1.740;2023-02-01T02:50:17;100618.91;;;3.79;100.00
51452;BME280;37521;52.020;-1.740;2023-02-01T02:53:08;100613.72;;;3.76;100.00
51452;BME280;37521;52.020;-1.740;2023-02-01T02:55:56;100620.72;;;3.71;100.00
51452;BME280;37521;52.020;-1.740;2023-02-01T02:58:43;100612.03;;;3.67;100.00
51452;BME280;37521;52.020;-1.740;2023-02-01T03:01:31;100620.78;;;3.63;100.00
51452;BME280;37521;52.020;-1.740;2023-02-01T03:04:18;100607.69;;;3.66;100.00
51452;BME280;37521;52.020;-1.740;2023-02-01T03:06:51;100618.94;;;3.73;100.00
51452;BME280;37521;52.020;-1.740;2023-02-01T03:09:25;100615.44;;;3.74;100.00
51452;BME280;37521;52.020;-1.740;2023-02-01T03:11:58;100612.91;;;3.69;100.00
51452;BME280;37521;52.020;-1.740;2023-02-01T03:14:50;100628.63;;;3.63;100.00
51452;BME280;37521;52.020;-1.740;2023-02-01T03:17:25;100621.63;;;3.65;100.00
51452;BME280;37521;52.020;-1.740;2023-02-01T03:19:57;100626.94;;;3.56;100.00
51452;BME280;37521;52.020;-1.740;2023-02-01T03:22:29;100627.78;;;3.58;100.00
51452;BME280;37521;52.020;-1.740;2023-02-01T03:25:03;100632.16;;;3.56;100.00
51452;BME280;37521;52.020;-1.740;2023-02-01T03:27:36;100626.97;;;3.50;100.00
51452;BME280;37521;52.020;-1.740;2023-02-01T03:30:08;100633.06;;;3.47;100.00
51452;BME280;37521;52.020;-1.740;2023-02-01T03:32:40;100621.81;;;3.42;100.00
51452;BME280;37521;52.020;-1.740;2023-02-01T03:35:40;100620.06;;;3.43;100.00
51452;BME280;37521;52.020;-1.740;2023-02-01T03:38:17;100628.75;;;3.48;100.00
51452;BME280;37521;52.020;-1.740;2023-02-01T03:40:52;100627.03;;;3.44;100.00
51452;BME280;37521;52.020;-1.740;2023-02-01T03:43:23;100638.34;;;3.43;100.00
51452;BME280;37521;52.020;-1.740;2023-02-01T03:45:58;100618.31;;;3.45;100.00
51452;BME280;37521;52.020;-1.740;2023-02-01T03:48:28;100618.31;;;3.45;100.00
51452;BME280;37521;52.020;-1.740;2023-02-01T03:51:01;100616.59;;;3.41;100.00
51452;BME280;37521;52.020;-1.740;2023-02-01T03:53:34;100619.25;;;3.38;100.00
51452;BME280;37521;52.020;-1.740;2023-02-01T03:56:06;100617.44;;;3.44;100.00
51452;BME280;37521;52.020;-1.740;2023-02-01T03:58:35;100617.34;;;3.58;100.00
51452;BME280;37521;52.020;-1.740;2023-02-01T04:01:03;100622.44;;;3.73;100.00
51452;BME280;37521;52.020;-1.740;2023-02-01T04:03:35;100621.50;;;3.79;100.00
51452;BME280;37521;52.020;-1.740;2023-02-01T04:06:05;100600.59;;;3.80;100.00
51452;BME280;37521;52.020;-1.740;2023-02-01T04:08:33;100612.72;;;3.88;100.00
51452;BME280;37521;52.020;-1.740;2023-02-01T04:11:02;100604.88;;;3.88;100.00
51452;BME280;37521;52.020;-1.740;2023-02-01T04:13:30;100597.03;;;3.88;100.00
51452;BME280;37521;52.020;-1.740;2023-02-01T04:15:58;100593.63;;;3.82;100.00
51452;BME280;37521;52.020;-1.740;2023-02-01T04:18:26;100599.78;;;3.77;100.00
51452;BME280;37521;52.020;-1.740;2023-02-01T04:20:55;100604.13;;;3.73;100.00
51452;BME280;37521;52.020;-1.740;2023-02-01T04:23:24;100592.00;;;3.69;100.00
51452;BME280;37521;52.020;-1.740;2023-02-01T04:25:52;100604.22;;;3.64;100.00
51452;BME280;37521;52.020;-1.740;2023-02-01T04:28:21;100599.94;;;3.54;100.00
51452;BME280;37521;52.020;-1.740;2023-02-01T04:30:49;100603.47;;;3.54;100.00
51452;BME280;37521;52.020;-1.740;2023-02-01T04:33:18;100603.47;;;3.50;100.00
51452;BME280;37521;52.020;-1.740;2023-02-01T04:35:47;100600.91;;;3.45;100.00
51452;BME280;37521;52.020;-1.740;2023-02-01T04:38:15;100602.69;;;3.42;100.00
51452;BME280;37521;52.020;-1.740;2023-02-01T04:40:47;100600.03;;;3.45;100.00
51452;BME280;37521;52.020;-1.740;2023-02-01T04:43:15;100615.69;;;3.48;100.00
51452;BME280;37521;52.020;-1.740;2023-02-01T04:45:47;100617.38;;;3.53;100.00
51452;BME280;37521;52.020;-1.740;2023-02-01T04:48:16;100616.50;;;3.53;100.00
51452;BME280;37521;52.020;-1.740;2023-02-01T04:50:45;100612.97;;;3.60;100.00
51452;BME280;37521;52.020;-1.740;2023-02-01T04:53:14;100600.75;;;3.64;100.00
51452;BME280;37521;52.020;-1.740;2023-02-01T04:55:42;100613.00;;;3.57;100.00
51452;BME280;37521;52.020;-1.740;2023-02-01T04:58:12;100602.56;;;3.57;100.00
51452;BME280;37521;52.020;-1.740;2023-02-01T05:00:40;100598.22;;;3.56;100.00
51452;BME280;37521;52.020;-1.740;2023-02-01T05:03:09;100600.78;;;3.59;100.00
51452;BME280;37521;52.020;-1.740;2023-02-01T05:05:37;100598.16;;;3.62;100.00
51452;BME280;37521;52.020;-1.740;2023-02-01T05:08:05;100603.41;;;3.59;100.00
51452;BME280;37521;52.020;-1.740;2023-02-01T05:10:33;100606.91;;;3.57;100.00
51452;BME280;37521;52.020;-1.740;2023-02-01T05:13:02;100607.78;;;3.57;100.00
51452;BME280;37521;52.020;-1.740;2023-02-01T05:15:50;100596.41;;;3.63;100.00
51452;BME280;37521;52.020;-1.740;2023-02-01T05:18:18;100577.22;;;3.65;100.00
51452;BME280;37521;52.020;-1.740;2023-02-01T05:20:46;100596.41;;;3.64;100.00
51452;BME280;37521;52.020;-1.740;2023-02-01T05:23:14;100582.47;;;3.64;100.00
51452;BME280;37521;52.020;-1.740;2023-02-01T05:25:43;100581.56;;;3.66;100.00
51452;BME280;37521;52.020;-1.740;2023-02-01T05:28:11;100572.84;;;3.67;100.00
51452;BME280;37521;52.020;-1.740;2023-02-01T05:30:39;100590.28;;;3.68;100.00
51452;BME280;37521;52.020;-1.740;2023-02-01T05:33:09;100567.63;;;3.67;100.00
51452;BME280;37521;52.020;-1.740;2023-02-01T05:35:37;100566.78;;;3.65;100.00
51452;BME280;37521;52.020;-1.740;2023-02-01T05:38:05;100565.91;;;3.66;100.00
51452;BME280;37521;52.020;-1.740;2023-02-01T05:40:34;100565.94;;;3.63;100.00
51452;BME280;37521;52.020;-1.740;2023-02-01T05:43:02;100565.03;;;3.67;100.00
51452;BME280;37521;52.020;-1.740;2023-02-01T05:45:30;100565.09;;;3.63;100.00
51452;BME280;37521;52.020;-1.740;2023-02-01T05:47:59;100563.38;;;3.57;100.00
51452;BME280;37521;52.020;-1.740;2023-02-01T05:50:28;100570.38;;;3.55;100.00
51452;BME280;37521;52.020;-1.740;2023-02-01T05:52:57;100558.13;;;3.60;100.00
51452;BME280;37521;52.020;-1.740;2023-02-01T05:55:25;100545.06;;;3.60;100.00
51452;BME280;37521;52.020;-1.740;2023-02-01T05:57:53;100539.03;;;3.57;100.00
51452;BME280;37521;52.020;-1.740;2023-02-01T06:00:22;100542.47;;;3.59;100.00
51452;BME280;37521;52.020;-1.740;2023-02-01T06:02:51;100537.28;;;3.54;100.00
51452;BME280;37521;52.020;-1.740;2023-02-01T06:05:20;100538.19;;;3.51;100.00
51452;BME280;37521;52.020;-1.740;2023-02-01T06:07:49;100552.13;;;3.52;100.00
51452;BME280;37521;52.020;-1.740;2023-02-01T06:10:18;100555.59;;;3.52;100.00
51452;BME280;37521;52.020;-1.740;2023-02-01T06:12:47;100562.59;;;3.49;100.00
51452;BME280;37521;52.020;-1.740;2023-02-01T06:15:16;100561.66;;;3.56;100.00
51452;BME280;37521;52.020;-1.740;2023-02-01T06:17:45;100560.75;;;3.60;100.00
51452;BME280;37521;52.020;-1.740;2023-02-01T06:20:16;100574.66;;;3.62;100.00
51452;BME280;37521;52.020;-1.740;2023-02-01T06:22:45;100583.25;;;3.73;100.00
51452;BME280;37521;52.020;-1.740;2023-02-01T06:25:14;100584.91;;;3.83;100.00
51452;BME280;37521;52.020;-1.740;2023-02-01T06:27:43;100600.53;;;3.90;100.00
51452;BME280;37521;52.020;-1.740;2023-02-01T06:30:12;100590.88;;;3.96;100.00
51452;BME280;37521;52.020;-1.740;2023-02-01T06:32:42;100594.34;;;3.97;100.00
51452;BME280;37521;52.020;-1.740;2023-02-01T06:35:10;100584.78;;;3.94;100.00
51452;BME280;37521;52.020;-1.740;2023-02-01T06:37:43;100579.59;;;3.93;100.00
51452;BME280;37521;52.020;-1.740;2023-02-01T06:40:11;100584.88;;;3.87;100.00
51452;BME280;37521;52.020;-1.740;2023-02-01T06:42:41;100583.19;;;3.79;100.00
51452;BME280;37521;52.020;-1.740;2023-02-01T06:45:10;100586.72;;;3.75;100.00
51452;BME280;37521;52.020;-1.740;2023-02-01T06:47:38;100588.50;;;3.70;100.00
51452;BME280;37521;52.020;-1.740;2023-02-01T06:50:07;100594.63;;;3.69;100.00
51452;BME280;37521;52.020;-1.740;2023-02-01T06:52:35;100597.25;;;3.66;100.00
51452;BME280;37521;52.020;-1.740;2023-02-01T06:55:04;100602.50;;;3.63;100.00
51452;BME280;37521;52.020;-1.740;2023-02-01T06:57:33;100606.84;;;3.64;100.00
51452;BME280;37521;52.020;-1.740;2023-02-01T07:00:05;100606.88;;;3.58;100.00
51452;BME280;37521;52.020;-1.740;2023-02-01T07:02:33;100609.53;;;3.55;100.00
51452;BME280;37521;52.020;-1.740;2023-02-01T07:05:01;100606.97;;;3.50;100.00
51452;BME280;37521;52.020;-1.740;2023-02-01T07:07:30;100599.94;;;3.57;100.00
51452;BME280;37521;52.020;-1.740;2023-02-01T07:09:58;100600.78;;;3.59;100.00
51452;BME280;37521;52.020;-1.740;2023-02-01T07:12:26;100592.13;;;3.57;100.00
51452;BME280;37521;52.020;-1.740;2023-02-01T07:14:54;100600.81;;;3.56;100.00
51452;BME280;37521;52.020;-1.740;2023-02-01T07:17:24;100605.19;;;3.55;100.00
51452;BME280;37521;52.020;-1.740;2023-02-01T07:19:52;100606.88;;;3.60;100.00
51452;BME280;37521;52.020;-1.740;2023-02-01T07:22:21;100595.59;;;3.56;100.00
51452;BME280;37521;52.020;-1.740;2023-02-01T07:24:49;100599.09;;;3.52;100.00
51452;BME280;37521;52.020;-1.740;2023-02-01T07:27:17;100606.94;;;3.55;100.00
51452;BME280;37521;52.020;-1.740;2023-02-01T07:29:46;100609.53;;;3.55;100.00
51452;BME280;37521;52.020;-1.740;2023-02-01T07:32:15;100608.69;;;3.54;100.00
51452;BME280;37521;52.020;-1.740;2023-02-01T07:34:46;100625.19;;;3.57;100.00
51452;BME280;37521;52.020;-1.740;2023-02-01T07:37:14;100620.84;;;3.55;100.00
51452;BME280;37521;52.020;-1.740;2023-02-01T07:39:43;100624.34;;;3.51;100.00
51452;BME280;37521;52.020;-1.740;2023-02-01T07:42:12;100627.00;;;3.47;100.00
51452;BME280;37521;52.020;-1.740;2023-02-01T07:44:40;100635.66;;;3.52;100.00
51452;BME280;37521;52.020;-1.740;2023-02-01T07:47:08;100634.72;;;3.62;100.00
51452;BME280;37521;52.020;-1.740;2023-02-01T07:49:36;100628.56;;;3.66;100.00
51452;BME280;37521;52.020;-1.740;2023-02-01T07:52:06;100619.84;;;3.70;100.00
51452;BME280;37521;52.020;-1.740;2023-02-01T07:54:36;100610.22;;;3.77;100.00
51452;BME280;37521;52.020;-1.740;2023-02-01T07:57:04;100606.69;;;3.81;100.00
51452;BME280;37521;52.020;-1.740;2023-02-01T07:59:32;100604.91;;;3.85;100.00
51452;BME280;37521;52.020;-1.740;2023-02-01T08:02:00;100613.59;;;3.87;100.00
51452;BME280;37521;52.020;-1.740;2023-02-01T08:04:28;100606.69;;;3.81;100.00
51452;BME280;37521;52.020;-1.740;2023-02-01T08:06:56;100620.69;;;3.75;100.00
51452;BME280;37521;52.020;-1.740;2023-02-01T08:09:26;100609.38;;;3.73;100.00
51452;BME280;37521;52.020;-1.740;2023-02-01T08:11:54;100611.13;;;3.71;100.00
51452;BME280;37521;52.020;-1.740;2023-02-01T08:14:22;100618.13;;;3.66;100.00
51452;BME280;37521;52.020;-1.740;2023-02-01T08:16:51;100619.84;;;3.70;100.00
51452;BME280;37521;52.020;-1.740;2023-02-01T08:19:19;100618.94;;;3.74;100.00
51452;BME280;37521;52.020;-1.740;2023-02-01T08:21:47;100609.31;;;3.79;100.00
51452;BME280;37521;52.020;-1.740;2023-02-01T08:24:15;100604.97;;;3.81;100.00
51452;BME280;37521;52.020;-1.740;2023-02-01T08:26:45;100611.97;;;3.76;100.00
51452;BME280;37521;52.020;-1.740;2023-02-01T08:29:13;100615.47;;;3.75;100.00
51452;BME280;37521;52.020;-1.740;2023-02-01T08:31:41;100601.56;;;3.70;100.00
51452;BME280;37521;52.020;-1.740;2023-02-01T08:34:10;100612.88;;;3.72;100.00
51452;BME280;37521;52.020;-1.740;2023-02-01T08:36:39;100612.84;;;3.74;100.00
51452;BME280;37521;52.020;-1.740;2023-02-01T08:39:08;100606.75;;;3.76;100.00
51452;BME280;37521;52.020;-1.740;2023-02-01T08:41:37;100605.81;;;3.80;100.00
51452;BME280;37521;52.020;-1.740;2023-02-01T08:44:08;100604.09;;;3.79;100.00
51452;BME280;37521;52.020;-1.740;2023-02-01T08:46:36;100597.13;;;3.78;100.00
51452;BME280;37521;52.020;-1.740;2023-02-01T08:49:04;100607.56;;;3.81;100.00
51452;BME280;37521;52.020;-1.740;2023-02-01T08:51:33;100596.19;;;3.86;100.00
51452;BME280;37521;52.020;-1.740;2023-02-01T08:54:01;100597.03;;;3.91;100.00
51452;BME280;37521;52.020;-1.740;2023-02-01T08:56:30;100592.63;;;3.94;100.00
51452;BME280;37521;52.020;-1.740;2023-02-01T08:58:58;100586.53;;;3.97;100.00
51452;BME280;37521;52.020;-1.740;2023-02-01T09:01:27;100596.03;;;4.01;100.00
51452;BME280;37521;52.020;-1.740;2023-02-01T09:03:56;100607.31;;;4.09;100.00
51452;BME280;37521;52.020;-1.740;2023-02-01T09:06:24;100612.47;;;4.15;100.00
51452;BME280;37521;52.020;-1.740;2023-02-01T09:08:52;100616.69;;;4.27;100.00
51452;BME280;37521;52.020;-1.740;2023-02-01T09:11:20;100621.84;;;4.33;100.00
51452;BME280;37521;52.020;-1.740;2023-02-01T09:13:48;100620.91;;;4.38;100.00
51452;BME280;37521;52.020;-1.740;2023-02-01T09:16:17;100628.75;;;4.42;100.00
51452;BME280;37521;52.020;-1.740;2023-02-01T09:18:47;100615.56;;;4.48;100.00
51452;BME280;37521;52.020;-1.740;2023-02-01T09:21:33;100613.78;;;4.53;100.00
51452;BME280;37521;52.020;-1.740;2023-02-01T09:24:02;100610.19;;;4.60;100.00
51452;BME280;37521;52.020;-1.740;2023-02-01T09:26:31;100633.66;;;4.66;100.00
51452;BME280;37521;52.020;-1.740;2023-02-01T09:28:59;100630.94;;;4.75;100.00
51452;BME280;37521;52.020;-1.740;2023-02-01T09:31:28;100641.31;;;4.81;100.00
51452;BME280;37521;52.020;-1.740;2023-02-01T09:33:57;100631.66;;;4.86;100.00
51452;BME280;37521;52.020;-1.740;2023-02-01T09:36:26;100631.63;;;4.89;100.00
51452;BME280;37521;52.020;-1.740;2023-02-01T09:38:57;100623.72;;;4.92;100.00
51452;BME280;37521;52.020;-1.740;2023-02-01T09:41:38;100633.31;;;4.95;100.00
51452;BME280;37521;52.020;-1.740;2023-02-01T09:44:17;100637.56;;;5.01;100.00
51452;BME280;37521;52.020;-1.740;2023-02-01T09:46:47;100641.00;;;5.06;100.00
51452;BME280;37521;52.020;-1.740;2023-02-01T09:49:21;100637.50;;;5.08;100.00
51452;BME280;37521;52.020;-1.740;2023-02-01T09:51:51;100643.50;;;5.15;100.00
51452;BME280;37521;52.020;-1.740;2023-02-01T09:54:24;100645.97;;;5.24;100.00
51452;BME280;37521;52.020;-1.740;2023-02-01T09:57:00;100660.75;;;5.28;100.00
51452;BME280;37521;52.020;-1.740;2023-02-01T09:59:37;100655.38;;;5.39;100.00
51452;BME280;37521;52.020;-1.740;2023-02-01T10:02:12;100659.59;;;5.49;100.00
51452;BME280;37521;52.020;-1.740;2023-02-01T10:04:42;100657.75;;;5.56;100.00
51452;BME280;37521;52.020;-1.740;2023-02-01T10:07:20;100659.44;;;5.58;100.00
51452;BME280;37521;52.020;-1.740;2023-02-01T10:09:58;100670.69;;;5.65;100.00
51452;BME280;37521;52.020;-1.740;2023-02-01T10:15:28;100657.41;;;5.77;100.00
51452;BME280;37521;52.020;-1.740;2023-02-01T10:18:11;100661.56;;;5.87;100.00
51452;BME280;37521;52.020;-1.740;2023-02-01T10:20:52;100664.97;;;5.97;100.00
51452;BME280;37521;52.020;-1.740;2023-02-01T10:23:45;100665.75;;;6.00;100.00
51452;BME280;37521;52.020;-1.740;2023-02-01T10:26:19;100677.94;;;6.05;100.00
51452;BME280;37521;52.020;-1.740;2023-02-01T10:28:50;100676.75;;;6.21;100.00
51452;BME280;37521;52.020;-1.740;2023-02-01T10:31:19;100664.28;;;6.34;100.00
51452;BME280;37521;52.020;-1.740;2023-02-01T10:33:51;100666.72;;;6.44;100.00
51452;BME280;37521;52.020;-1.740;2023-02-01T10:36:25;100671.63;;;6.63;100.00
51452;BME280;37521;52.020;-1.740;2023-02-01T10:38:57;100672.25;;;6.75;100.00
51452;BME280;37521;52.020;-1.740;2023-02-01T10:41:31;100677.56;;;6.72;100.00
51452;BME280;37521;52.020;-1.740;2023-02-01T10:44:03;100681.31;;;6.59;100.00
51452;BME280;37521;52.020;-1.740;2023-02-01T10:46:34;100680.38;;;6.62;100.00
51452;BME280;37521;52.020;-1.740;2023-02-01T10:49:04;100687.25;;;6.69;100.00
51452;BME280;37521;52.020;-1.740;2023-02-01T10:51:42;100689.84;;;6.70;100.00
51452;BME280;37521;52.020;-1.740;2023-02-01T10:54:16;100687.00;;;6.82;100.00
51452;BME280;37521;52.020;-1.740;2023-02-01T10:56:48;100688.44;;;6.97;100.00
51452;BME280;37521;52.020;-1.740;2023-02-01T10:59:18;100683.13;;;6.99;100.00
51452;BME280;37521;52.020;-1.740;2023-02-01T11:01:48;100690.75;;;7.11;100.00
51452;BME280;37521;52.020;-1.740;2023-02-01T11:04:18;100672.34;;;7.13;100.00
51452;BME280;37521;52.020;-1.740;2023-02-01T11:06:51;100672.81;;;7.31;100.00
51452;BME280;37521;52.020;-1.740;2023-02-01T11:09:22;100682.59;;;7.62;100.00
51452;BME280;37521;52.020;-1.740;2023-02-01T11:11:54;100677.50;;;7.56;100.00
51452;BME280;37521;52.020;-1.740;2023-02-01T11:14:32;100661.88;;;7.50;100.00
51452;BME280;37521;52.020;-1.740;2023-02-01T11:17:17;100683.69;;;7.53;100.00
51452;BME280;37521;52.020;-1.740;2023-02-01T11:19:57;100681.09;;;7.52;100.00
51452;BME280;37521;52.020;-1.740;2023-02-01T11:22:28;100674.84;;;7.57;100.00
51452;BME280;37521;52.020;-1.740;2023-02-01T11:24:58;100666.97;;;7.57;100.00
51452;BME280;37521;52.020;-1.740;2023-02-01T11:27:27;100667.72;;;7.62;100.00
51452;BME280;37521;52.020;-1.740;2023-02-01T11:29:59;100670.75;;;7.83;100.00
51452;BME280;37521;52.020;-1.740;2023-02-01T11:32:30;100663.53;;;7.91;100.00
51452;BME280;37521;52.020;-1.740;2023-02-01T11:35:01;100674.19;;;7.85;100.00
51452;BME280;37521;52.020;-1.740;2023-02-01T11:37:35;100680.59;;;7.73;100.00
51452;BME280;37521;52.020;-1.740;2023-02-01T11:40:25;100670.31;;;7.64;100.00
51452;BME280;37521;52.020;-1.740;2023-02-01T11:42:56;100680.25;;;7.51;100.00
51452;BME280;37521;52.020;-1.740;2023-02-01T11:45:26;100669.00;;;7.45;100.00
51452;BME280;37521;52.020;-1.740;2023-02-01T11:47:56;100675.41;;;7.33;100.00
51452;BME280;37521;52.020;-1.740;2023-02-01T11:50:30;100681.72;;;7.24;100.00
51452;BME280;37521;52.020;-1.740;2023-02-01T11:53:21;100677.59;;;7.13;100.00
51452;BME280;37521;52.020;-1.740;2023-02-01T11:56:00;100690.03;;;7.04;100.00
51452;BME280;37521;52.020;-1.740;2023-02-01T11:58:45;100696.38;;;6.93;100.00
51452;BME280;37521;52.020;-1.740;2023-02-01T12:01:37;100694.81;;;6.84;100.00
51452;BME280;37521;52.020;-1.740;2023-02-01T12:04:37;100702.84;;;6.76;100.00
51452;BME280;37521;52.020;-1.740;2023-02-01T12:07:16;100701.22;;;6.71;100.00
51452;BME280;37521;52.020;-1.740;2023-02-01T12:09:57;100707.44;;;6.65;100.00
51452;BME280;37521;52.020;-1.740;2023-02-01T12:12:39;100706.53;;;6.66;100.00
51452;BME280;37521;52.020;-1.740;2023-02-01T12:15:22;100705.63;;;6.69;100.00
51452;BME280;37521;52.020;-1.740;2023-02-01T12:18:14;100701.22;;;6.71;100.00
51452;BME280;37521;52.020;-1.740;2023-02-01T12:20:59;100709.78;;;6.79;100.00
51452;BME280;37521;52.020;-1.740;2023-02-01T12:23:42;100716.59;;;6.88;100.00
51452;BME280;37521;52.020;-1.740;2023-02-01T12:26:33;100715.63;;;6.93;100.00
51452;BME280;37521;52.020;-1.740;2023-02-01T12:29:17;100707.75;;;6.93;100.00
51452;BME280;37521;52.020;-1.740;2023-02-01T12:31:55;100718.34;;;6.89;100.00
51452;BME280;37521;52.020;-1.740;2023-02-01T12:34:43;100709.66;;;6.85;100.00
51452;BME280;37521;52.020;-1.740;2023-02-01T12:37:22;100712.22;;;6.90;100.00
51452;BME280;37521;52.020;-1.740;2023-02-01T12:40:02;100700.78;;;6.92;100.00
51452;BME280;37521;52.020;-1.740;2023-02-01T12:42:38;100703.16;;;7.04;100.00
51452;BME280;37521;52.020;-1.740;2023-02-01T12:45:13;100707.13;;;7.24;100.00
51452;BME280;37521;52.020;-1.740;2023-02-01T12:47:47;100702.66;;;7.29;100.00
51452;BME280;37521;52.020;-1.740;2023-02-01T12:50:21;100702.78;;;7.21;100.00
51452;BME280;37521;52.020;-1.740;2023-02-01T12:52:55;100701.00;;;7.23;100.00
51452;BME280;37521;52.020;-1.740;2023-02-01T12:55:34;100698.34;;;7.25;100.00
51452;BME280;37521;52.020;-1.740;2023-02-01T12:58:11;100706.22;;;7.25;100.00
51452;BME280;37521;52.020;-1.740;2023-02-01T13:00:44;100699.41;;;7.16;100.00
51452;BME280;37521;52.020;-1.740;2023-02-01T13:03:22;100704.69;;;7.15;100.00
51452;BME280;37521;52.020;-1.740;2023-02-01T13:05:58;100704.66;;;7.16;100.00
51452;BME280;37521;52.020;-1.740;2023-02-01T13:08:37;100703.66;;;7.22;100.00
51452;BME280;37521;52.020;-1.740;2023-02-01T13:11:10;100692.88;;;7.34;100.00
51452;BME280;37521;52.020;-1.740;2023-02-01T13:13:58;100697.81;;;7.49;100.00